Terminal Aerodrome Forecast
Issued by NWS Tulsa, OK

Home | Current Version | Previous Version | Text Only | Print | Product List | Glossary On
Versions: 1 2 3 4 5 6 7 8 9 10 11 12 13 14 15 16 17 18 19
000
FTUS44 KTSA 050200 AAA
TAFTUL
TAF AMD
KTUL 050223Z 0502/0524 06004KT 6SM -SN OVC070
     FM050400 01007KT P6SM OVC090
     FM051000 34004KT P6SM BKN200=

USA.gov is the U.S. government's official web portal to all federal, state and local government web resources and services.